Time;durP1;ratioP1;P1;durP2;ratioP2;P2;SDS_P1;SDS_P2;PMS_P1;PMS_P2;Temp;Humidity;BMP_temperature;BMP_pressure;BME280_temperature;BME280_humidity;BME280_pressure;Samples;Min_cycle;Max_cycle;Signal;HPM_P1;HPM_P2
2022/07/13 00:00:05;;;;;;;;;;;;;;;;;;354167;27;837;-63
2022/07/13 00:00:16;;;;;;;;;;;;;;;;;;354208;27;787;-62
2022/07/13 00:00:26;;;;;;;;;;;;;;;;;;354234;27;894;-62
2022/07/13 00:00:37;;;;;;;;;;;;;;;;;;354205;27;920;-62
2022/07/13 00:00:47;;;;;;;;;;;;;;;;;;354180;27;898;-62
2022/07/13 00:00:57;;;;;;;;;;;;;;;;;;354212;27;971;-62
2022/07/13 00:01:07;;;;;;;;;;;;;;;;;;354114;27;828;-62
2022/07/13 00:01:18;;;;;;;;;;;;;;;;;;354200;27;924;-62
2022/07/13 00:01:30;;;;;;;;;;;;;;;;;;354140;27;900;-63
2022/07/13 00:01:40;;;;;;;;;;;;;;;;;;354181;27;923;-62
2022/07/13 00:01:51;;;;;;;;;;;;;;;;;;354186;27;884;-62
2022/07/13 00:02:01;;;;;;;;;;;;;;;;;;354173;27;853;-62
2022/07/13 00:02:11;;;;;;;;;;;;;;;;;;354192;27;1075;-62
2022/07/13 00:02:21;;;;;;;;;;;;;;;;;;354095;27;1338;-63
2022/07/13 00:02:32;;;;;;;;;;;;;;;;;;354233;27;932;-62
2022/07/13 00:02:42;;;;;;;;;;;;;;;;;;354198;27;1110;-62
2022/07/13 00:02:53;;;;;;;;;;;;;;;;;;354178;27;1643;-62
2022/07/13 00:03:03;;;;;;;;;;;;;;;;;;354131;27;936;-62
2022/07/13 00:03:13;;;;;;;;;;;;;;;;;;354081;27;1145;-62
2022/07/13 00:03:23;;;;;;;;;;;;;;;;;;354231;27;995;-62
2022/07/13 00:03:34;;;;;;;;;;;;;;;;;;354154;27;1921;-62
2022/07/13 00:03:45;;;;;;;;;;;;;;;;;;354088;27;952;-62
2022/07/13 00:03:55;;;;;;;;;;;;;;;;;;354233;27;967;-62
2022/07/13 00:04:05;;;;;;;;;;;;;;;;;;354178;27;830;-62
2022/07/13 00:04:15;;;;;;;;;;;;;;;;;;354196;27;971;-62
2022/07/13 00:04:26;;;;;;;;;;;;;;;;;;354139;27;932;-62
2022/07/13 00:04:36;;;;;;;;;;;;;;;;;;354227;28;837;-62
2022/07/13 00:04:46;;;;;;;;;;;;;;;;;;354191;27;932;-62
2022/07/13 00:04:56;;;;;;;;;;;;;;;;;;354162;27;808;-62
2022/07/13 00:05:07;;;;;;;;;;;;;;;;;;352105;27;1378;-62
2022/07/13 00:05:17;;;;;;;;;;;;;;;;;;352165;28;849;-62
2022/07/13 00:05:27;;;;;;;;;;;;;;;;;;352771;28;1793;-62
2022/07/13 00:05:37;;;;;;;;;;;;;;;;;;352763;28;936;-62
2022/07/13 00:05:47;;;;;;;;;;;;;;;;;;352745;28;924;-62
2022/07/13 00:05:58;;;;;;;;;;;;;;;;;;352732;28;868;-62
2022/07/13 00:06:08;;;;;;;;;;;;;;;;;;352763;28;987;-62
2022/07/13 00:06:18;;;;;;;;;;;;;;;;;;352758;28;916;-62
2022/07/13 00:06:29;;;;;;;;;;;;;;;;;;352757;28;1043;-62
2022/07/13 00:06:39;;;;;;;;;;;;;;;;;;351330;28;976;-62
2022/07/13 00:06:49;;;;;;;;;;;;;;;;;;351405;28;1114;-62
2022/07/13 00:06:59;;;;;;;;;;;;;;;;;;351389;28;853;-62
2022/07/13 00:07:09;;;;;;;;;;;;;;;;;;351328;28;913;-62
2022/07/13 00:07:20;;;;;;;;;;;;;;;;;;351308;28;968;-62
2022/07/13 00:07:30;;;;;;;;;;;;;;;;;;352949;27;1217;-62
2022/07/13 00:07:40;;;;;;;;;;;;;;;;;;353740;27;1509;-62
2022/07/13 00:07:50;;;;;;;;;;;;;;;;;;354107;27;1106;-62
2022/07/13 00:08:00;;;;;;;;;;;;;;;;;;354118;27;1040;-62
2022/07/13 00:08:10;;;;;;;;;;;;;;;;;;354157;27;694;-62
2022/07/13 00:08:21;;;;;;;;;;;;;;;;;;354197;27;913;-62
2022/07/13 00:08:31;;;;;;;;;;;;;;;;;;354163;27;769;-62
2022/07/13 00:08:41;;;;;;;;;;;;;;;;;;354175;27;928;-62
2022/07/13 00:08:52;;;;;;;;;;;;;;;;;;354209;27;896;-62
2022/07/13 00:09:02;;;;;;;;;;;;;;;;;;354179;27;1015;-62
2022/07/13 00:09:12;;;;;;;;;;;;;;;;;;354114;27;991;-62
2022/07/13 00:09:23;;;;;;;;;;;;;;;;;;354178;27;991;-62
2022/07/13 00:09:33;;;;;;;;;;;;;;;;;;354227;27;793;-62
2022/07/13 00:09:43;;;;;;;;;;;;;;;;;;354202;27;935;-62
2022/07/13 00:09:53;;;;;;;;;;;;;;;;;;354112;27;933;-62
2022/07/13 00:10:04;;;;;;;;;;;;;;;;;;354159;27;908;-62
2022/07/13 00:10:14;;;;;;;;;;;;;;;;;;354114;27;1166;-62
2022/07/13 00:10:25;;;;;;;;;;;;;;;;;;353585;27;1486;-62
2022/07/13 00:10:35;;;;;;;;;;;;;;;;;;353952;27;1513;-62
2022/07/13 00:10:45;;;;;;;;;;;;;;;;;;354176;27;770;-62
2022/07/13 00:10:55;;;;;;;;;;;;;;;;;;354180;27;892;-62
2022/07/13 00:11:05;;;;;;;;;;;;;;;;;;354214;27;908;-62
2022/07/13 00:11:15;;;;;;;;;;;;;;;;;;354094;27;793;-62
2022/07/13 00:11:26;;;;;;;;;;;;;;;;;;354189;27;861;-62
2022/07/13 00:11:36;;;;;;;;;;;;;;;;;;354178;27;809;-62
2022/07/13 00:11:46;;;;;;;;;;;;;;;;;;354182;28;901;-62
2022/07/13 00:11:56;;;;;;;;;;;;;;;;;;354137;27;951;-62
2022/07/13 00:12:07;;;;;;;;;;;;;;;;;;354181;27;904;-62
2022/07/13 00:12:18;;;;;;;;;;;;;;;;;;354097;27;979;-62
2022/07/13 00:12:28;;;;;;;;;;;;;;;;;;354159;27;999;-62
2022/07/13 00:12:39;;;;;;;;;;;;;;;;;;354191;27;983;-62
2022/07/13 00:12:49;;;;;;;;;;;;;;;;;;354262;27;896;-62
2022/07/13 00:12:59;;;;;;;;;;;;;;;;;;354137;27;991;-62
2022/07/13 00:13:09;;;;;;;;;;;;;;;;;;354211;27;861;-62
2022/07/13 00:13:19;;;;;;;;;;;;;;;;;;354197;27;833;-62
2022/07/13 00:13:30;;;;;;;;;;;;;;;;;;354128;27;900;-62
2022/07/13 00:13:40;;;;;;;;;;;;;;;;;;354207;27;892;-62
2022/07/13 00:13:50;;;;;;;;;;;;;;;;;;354202;27;810;-62
2022/07/13 00:14:00;;;;;;;;;;;;;;;;;;354124;27;924;-62
2022/07/13 00:14:10;;;;;;;;;;;;;;;;;;354174;27;806;-62
2022/07/13 00:14:21;;;;;;;;;;;;;;;;;;354134;27;897;-62
2022/07/13 00:14:31;;;;;;;;;;;;;;;;;;354163;27;902;-62
2022/07/13 00:14:42;;;;;;;;;;;;;;;;;;354191;27;916;-62
2022/07/13 00:14:52;;;;;;;;;;;;;;;;;;354183;27;964;-62
2022/07/13 00:15:03;;;;;;;;;;;;;;;;;;354168;27;854;-62
2022/07/13 00:15:13;;;;;;;;;;;;;;;;;;354205;27;841;-62
2022/07/13 00:15:23;;;;;;;;;;;;;;;;;;354131;27;920;-62
2022/07/13 00:15:33;;;;;;;;;;;;;;;;;;354171;27;837;-62
2022/07/13 00:15:44;;;;;;;;;;;;;;;;;;354254;27;889;-62
2022/07/13 00:15:54;;;;;;;;;;;;;;;;;;354178;27;904;-62
2022/07/13 00:16:04;;;;;;;;;;;;;;;;;;354115;27;991;-62
2022/07/13 00:16:14;;;;;;;;;;;;;;;;;;354168;27;944;-62
2022/07/13 00:16:24;;;;;;;;;;;;;;;;;;354174;27;952;-62
2022/07/13 00:16:35;;;;;;;;;;;;;;;;;;354104;27;979;-62
2022/07/13 00:16:45;;;;;;;;;;;;;;;;;;354213;27;845;-62
2022/07/13 00:16:56;;;;;;;;;;;;;;;;;;354190;27;826;-62
2022/07/13 00:17:06;;;;;;;;;;;;;;;;;;354194;27;1022;-62
2022/07/13 00:17:16;;;;;;;;;;;;;;;;;;354183;27;789;-62
2022/07/13 00:17:27;;;;;;;;;;;;;;;;;;354172;27;943;-62
2022/07/13 00:17:37;;;;;;;;;;;;;;;;;;354185;27;1104;-62
2022/07/13 00:17:47;;;;;;;;;;;;;;;;;;354154;27;988;-62
2022/07/13 00:17:57;;;;;;;;;;;;;;;;;;354135;27;1104;-62
2022/07/13 00:18:08;;;;;;;;;;;;;;;;;;354156;28;1140;-62
2022/07/13 00:18:18;;;;;;;;;;;;;;;;;;354179;27;971;-62
2022/07/13 00:18:28;;;;;;;;;;;;;;;;;;354158;27;902;-62
2022/07/13 00:18:38;;;;;;;;;;;;;;;;;;354057;27;1031;-62
2022/07/13 00:18:48;;;;;;;;;;;;;;;;;;354208;27;849;-62
2022/07/13 00:18:59;;;;;;;;;;;;;;;;;;354183;27;900;-62
2022/07/13 00:19:09;;;;;;;;;;;;;;;;;;354156;27;686;-62
2022/07/13 00:19:19;;;;;;;;;;;;;;;;;;352121;28;1317;-62
2022/07/13 00:19:29;;;;;;;;;;;;;;;;;;351353;28;959;-62
2022/07/13 00:19:39;;;;;;;;;;;;;;;;;;351337;28;901;-62
2022/07/13 00:19:50;;;;;;;;;;;;;;;;;;351377;28;778;-62
2022/07/13 00:20:00;;;;;;;;;;;;;;;;;;351351;28;867;-62
2022/07/13 00:20:10;;;;;;;;;;;;;;;;;;351342;28;905;-62
2022/07/13 00:20:21;;;;;;;;;;;;;;;;;;351318;28;964;-62
2022/07/13 00:20:31;;;;;;;;;;;;;;;;;;351240;28;1004;-62
2022/07/13 00:20:42;;;;;;;;;;;;;;;;;;351328;28;870;-62
2022/07/13 00:20:53;;;;;;;;;;;;;;;;;;351412;28;824;-62
2022/07/13 00:21:03;;;;;;;;;;;;;;;;;;351341;28;925;-62
2022/07/13 00:21:13;;;;;;;;;;;;;;;;;;351339;28;921;-62
2022/07/13 00:21:23;;;;;;;;;;;;;;;;;;351276;28;853;-62
2022/07/13 00:21:33;;;;;;;;;;;;;;;;;;351333;28;933;-62
2022/07/13 00:21:44;;;;;;;;;;;;;;;;;;351329;28;945;-62
2022/07/13 00:21:55;;;;;;;;;;;;;;;;;;351327;28;781;-62
2022/07/13 00:22:05;;;;;;;;;;;;;;;;;;351357;28;917;-62
2022/07/13 00:22:16;;;;;;;;;;;;;;;;;;351322;28;881;-62
2022/07/13 00:22:26;;;;;;;;;;;;;;;;;;351326;28;972;-62
2022/07/13 00:22:36;;;;;;;;;;;;;;;;;;351330;28;755;-62
2022/07/13 00:22:47;;;;;;;;;;;;;;;;;;351357;28;849;-62
2022/07/13 00:22:57;;;;;;;;;;;;;;;;;;351372;28;944;-62
2022/07/13 00:23:07;;;;;;;;;;;;;;;;;;351303;28;1676;-62
2022/07/13 00:23:17;;;;;;;;;;;;;;;;;;351358;28;889;-62
2022/07/13 00:23:27;;;;;;;;;;;;;;;;;;351337;28;925;-62
2022/07/13 00:23:37;;;;;;;;;;;;;;;;;;351264;28;1914;-62
2022/07/13 00:23:48;;;;;;;;;;;;;;;;;;351390;28;909;-62
2022/07/13 00:23:58;;;;;;;;;;;;;;;;;;351312;28;790;-62
2022/07/13 00:24:08;;;;;;;;;;;;;;;;;;351344;28;953;-62
2022/07/13 00:24:18;;;;;;;;;;;;;;;;;;351381;28;933;-62
2022/07/13 00:24:28;;;;;;;;;;;;;;;;;;351326;28;928;-62
2022/07/13 00:24:39;;;;;;;;;;;;;;;;;;351299;28;1664;-62
2022/07/13 00:24:49;;;;;;;;;;;;;;;;;;351298;28;891;-62
2022/07/13 00:24:59;;;;;;;;;;;;;;;;;;351330;28;972;-62
2022/07/13 00:25:09;;;;;;;;;;;;;;;;;;351440;28;830;-62
2022/07/13 00:25:19;;;;;;;;;;;;;;;;;;351342;28;983;-62
2022/07/13 00:25:29;;;;;;;;;;;;;;;;;;351306;28;916;-62
2022/07/13 00:25:40;;;;;;;;;;;;;;;;;;351366;28;992;-62
2022/07/13 00:25:50;;;;;;;;;;;;;;;;;;351321;28;972;-62
2022/07/13 00:26:00;;;;;;;;;;;;;;;;;;351409;28;829;-62
2022/07/13 00:26:11;;;;;;;;;;;;;;;;;;351312;28;979;-62
2022/07/13 00:26:21;;;;;;;;;;;;;;;;;;351421;28;936;-62
2022/07/13 00:26:31;;;;;;;;;;;;;;;;;;351279;28;845;-62
2022/07/13 00:26:41;;;;;;;;;;;;;;;;;;351332;28;912;-62
2022/07/13 00:26:52;;;;;;;;;;;;;;;;;;351336;28;830;-62
2022/07/13 00:27:02;;;;;;;;;;;;;;;;;;351366;28;901;-62
2022/07/13 00:27:12;;;;;;;;;;;;;;;;;;350935;28;1611;-62
2022/07/13 00:27:22;;;;;;;;;;;;;;;;;;352117;28;1779;-62
2022/07/13 00:27:32;;;;;;;;;;;;;;;;;;352247;28;1508;-62
2022/07/13 00:27:42;;;;;;;;;;;;;;;;;;351363;28;944;-62
2022/07/13 00:27:53;;;;;;;;;;;;;;;;;;351320;28;825;-62
2022/07/13 00:28:03;;;;;;;;;;;;;;;;;;351358;28;925;-62
2022/07/13 00:28:13;;;;;;;;;;;;;;;;;;351334;28;921;-62
2022/07/13 00:28:24;;;;;;;;;;;;;;;;;;351261;28;1044;-62
2022/07/13 00:28:34;;;;;;;;;;;;;;;;;;351366;28;917;-62
2022/07/13 00:28:44;;;;;;;;;;;;;;;;;;351303;28;917;-62
2022/07/13 00:28:54;;;;;;;;;;;;;;;;;;351238;28;1043;-62
2022/07/13 00:29:05;;;;;;;;;;;;;;;;;;351365;28;929;-62
2022/07/13 00:29:15;;;;;;;;;;;;;;;;;;351405;28;782;-62
2022/07/13 00:29:25;;;;;;;;;;;;;;;;;;351295;28;920;-62
2022/07/13 00:29:35;;;;;;;;;;;;;;;;;;351282;28;842;-62
2022/07/13 00:29:46;;;;;;;;;;;;;;;;;;351349;28;972;-62
2022/07/13 00:29:56;;;;;;;;;;;;;;;;;;351314;28;960;-62
2022/07/13 00:30:06;;;;;;;;;;;;;;;;;;351375;28;858;-62
2022/07/13 00:30:17;;;;;;;;;;;;;;;;;;351303;28;771;-62
2022/07/13 00:30:27;;;;;;;;;;;;;;;;;;351256;28;960;-62
2022/07/13 00:30:38;;;;;;;;;;;;;;;;;;351331;28;920;-62
2022/07/13 00:30:48;;;;;;;;;;;;;;;;;;351313;28;1463;-62
2022/07/13 00:30:58;;;;;;;;;;;;;;;;;;351272;28;913;-62
2022/07/13 00:31:08;;;;;;;;;;;;;;;;;;351313;28;1039;-62
2022/07/13 00:31:18;;;;;;;;;;;;;;;;;;351343;28;1075;-62
2022/07/13 00:31:28;;;;;;;;;;;;;;;;;;351310;28;964;-62
2022/07/13 00:31:39;;;;;;;;;;;;;;;;;;351303;28;932;-62
2022/07/13 00:31:49;;;;;;;;;;;;;;;;;;351391;28;917;-62
2022/07/13 00:31:59;;;;;;;;;;;;;;;;;;351311;28;729;-62
2022/07/13 00:32:09;;;;;;;;;;;;;;;;;;351367;28;865;-62
2022/07/13 00:32:19;;;;;;;;;;;;;;;;;;351282;28;948;-62
2022/07/13 00:32:30;;;;;;;;;;;;;;;;;;351345;28;1011;-62
2022/07/13 00:32:40;;;;;;;;;;;;;;;;;;351284;28;917;-62
2022/07/13 00:32:50;;;;;;;;;;;;;;;;;;351338;28;983;-62
2022/07/13 00:33:00;;;;;;;;;;;;;;;;;;351243;28;889;-62
2022/07/13 00:33:11;;;;;;;;;;;;;;;;;;351320;28;920;-62
2022/07/13 00:33:21;;;;;;;;;;;;;;;;;;351328;28;869;-62
2022/07/13 00:33:31;;;;;;;;;;;;;;;;;;351321;28;853;-62
2022/07/13 00:33:41;;;;;;;;;;;;;;;;;;351305;28;909;-62
2022/07/13 00:33:51;;;;;;;;;;;;;;;;;;351283;28;1106;-62
2022/07/13 00:34:02;;;;;;;;;;;;;;;;;;351301;28;854;-62
2022/07/13 00:34:12;;;;;;;;;;;;;;;;;;351351;28;794;-62
2022/07/13 00:34:22;;;;;;;;;;;;;;;;;;351321;28;925;-62
2022/07/13 00:34:33;;;;;;;;;;;;;;;;;;351324;28;1004;-62
2022/07/13 00:34:43;;;;;;;;;;;;;;;;;;351283;28;981;-62
2022/07/13 00:34:53;;;;;;;;;;;;;;;;;;351329;28;1022;-62
2022/07/13 00:35:04;;;;;;;;;;;;;;;;;;351265;28;1101;-62
2022/07/13 00:35:14;;;;;;;;;;;;;;;;;;351287;28;1745;-62
2022/07/13 00:35:24;;;;;;;;;;;;;;;;;;351334;28;1110;-62
2022/07/13 00:35:34;;;;;;;;;;;;;;;;;;351340;28;913;-62
2022/07/13 00:35:44;;;;;;;;;;;;;;;;;;351248;28;765;-62
2022/07/13 00:35:55;;;;;;;;;;;;;;;;;;351343;28;905;-62
2022/07/13 00:36:05;;;;;;;;;;;;;;;;;;351356;28;964;-62
2022/07/13 00:36:15;;;;;;;;;;;;;;;;;;351368;28;862;-62
2022/07/13 00:36:25;;;;;;;;;;;;;;;;;;351328;28;778;-62
2022/07/13 00:36:37;;;;;;;;;;;;;;;;;;351301;28;972;-62
2022/07/13 00:36:47;;;;;;;;;;;;;;;;;;351257;28;957;-62
2022/07/13 00:36:58;;;;;;;;;;;;;;;;;;351331;28;885;-62
2022/07/13 00:37:08;;;;;;;;;;;;;;;;;;351285;28;937;-62
2022/07/13 00:37:18;;;;;;;;;;;;;;;;;;351310;28;920;-62
2022/07/13 00:37:28;;;;;;;;;;;;;;;;;;351316;28;821;-62
2022/07/13 00:37:38;;;;;;;;;;;;;;;;;;351363;28;857;-62
2022/07/13 00:37:49;;;;;;;;;;;;;;;;;;351287;28;921;-62
2022/07/13 00:37:59;;;;;;;;;;;;;;;;;;351389;28;766;-62
2022/07/13 00:38:09;;;;;;;;;;;;;;;;;;351305;28;948;-62
2022/07/13 00:38:19;;;;;;;;;;;;;;;;;;351350;28;972;-62
2022/07/13 00:38:30;;;;;;;;;;;;;;;;;;351345;28;814;-62
2022/07/13 00:38:40;;;;;;;;;;;;;;;;;;351405;28;856;-62
2022/07/13 00:38:50;;;;;;;;;;;;;;;;;;351254;28;836;-62
2022/07/13 00:39:01;;;;;;;;;;;;;;;;;;351320;28;901;-62
2022/07/13 00:39:11;;;;;;;;;;;;;;;;;;351293;28;983;-62
2022/07/13 00:39:21;;;;;;;;;;;;;;;;;;351357;28;908;-62
2022/07/13 00:39:32;;;;;;;;;;;;;;;;;;351307;28;909;-62
2022/07/13 00:39:42;;;;;;;;;;;;;;;;;;351328;28;972;-62
2022/07/13 00:39:52;;;;;;;;;;;;;;;;;;351331;28;861;-62
2022/07/13 00:40:03;;;;;;;;;;;;;;;;;;351315;28;1623;-62
2022/07/13 00:40:13;;;;;;;;;;;;;;;;;;352913;28;1504;-62
2022/07/13 00:40:23;;;;;;;;;;;;;;;;;;352771;28;777;-62
2022/07/13 00:40:33;;;;;;;;;;;;;;;;;;353539;27;1470;-62
2022/07/13 00:40:43;;;;;;;;;;;;;;;;;;354161;27;982;-62
2022/07/13 00:40:54;;;;;;;;;;;;;;;;;;354099;27;912;-62
2022/07/13 00:41:05;;;;;;;;;;;;;;;;;;354192;27;865;-62
2022/07/13 00:41:15;;;;;;;;;;;;;;;;;;354133;27;853;-62
2022/07/13 00:41:25;;;;;;;;;;;;;;;;;;354139;27;927;-62
2022/07/13 00:41:35;;;;;;;;;;;;;;;;;;354060;27;1205;-62
2022/07/13 00:41:46;;;;;;;;;;;;;;;;;;354143;27;916;-62
2022/07/13 00:41:57;;;;;;;;;;;;;;;;;;351807;28;1500;-61
2022/07/13 00:42:07;;;;;;;;;;;;;;;;;;351298;28;977;-62
2022/07/13 00:42:17;;;;;;;;;;;;;;;;;;351256;28;1017;-62
2022/07/13 00:42:27;;;;;;;;;;;;;;;;;;351331;28;892;-62
2022/07/13 00:42:38;;;;;;;;;;;;;;;;;;351347;28;1035;-62
2022/07/13 00:42:48;;;;;;;;;;;;;;;;;;351262;28;921;-62
2022/07/13 00:42:58;;;;;;;;;;;;;;;;;;351272;28;913;-62
2022/07/13 00:43:08;;;;;;;;;;;;;;;;;;351229;28;912;-62
2022/07/13 00:43:18;;;;;;;;;;;;;;;;;;351080;28;1049;-62
2022/07/13 00:43:29;;;;;;;;;;;;;;;;;;351141;28;778;-62
2022/07/13 00:43:39;;;;;;;;;;;;;;;;;;351083;28;1909;-62
2022/07/13 00:43:49;;;;;;;;;;;;;;;;;;351255;28;1052;-62
2022/07/13 00:44:07;;;;;;;;;;;;;;;;;;351257;28;976;-62
2022/07/13 00:44:17;;;;;;;;;;;;;;;;;;351268;28;925;-62
2022/07/13 00:44:27;;;;;;;;;;;;;;;;;;351333;28;849;-62
2022/07/13 00:44:37;;;;;;;;;;;;;;;;;;351373;28;897;-62
2022/07/13 00:44:47;;;;;;;;;;;;;;;;;;351250;28;964;-62
2022/07/13 00:44:58;;;;;;;;;;;;;;;;;;351337;28;767;-62
2022/07/13 00:45:08;;;;;;;;;;;;;;;;;;351300;28;931;-62
2022/07/13 00:45:19;;;;;;;;;;;;;;;;;;351289;28;920;-62
2022/07/13 00:45:29;;;;;;;;;;;;;;;;;;351245;28;972;-62
2022/07/13 00:45:39;;;;;;;;;;;;;;;;;;351317;28;932;-62
2022/07/13 00:45:50;;;;;;;;;;;;;;;;;;351286;28;984;-62
2022/07/13 00:46:01;;;;;;;;;;;;;;;;;;351259;28;1004;-62
2022/07/13 00:46:11;;;;;;;;;;;;;;;;;;351295;28;913;-62
2022/07/13 00:46:21;;;;;;;;;;;;;;;;;;351250;28;957;-62
2022/07/13 00:46:32;;;;;;;;;;;;;;;;;;351379;28;790;-62
2022/07/13 00:46:51;;;;;;;;;;;;;;;;;;351319;28;992;-62
2022/07/13 00:47:02;;;;;;;;;;;;;;;;;;351302;28;968;-62
2022/07/13 00:47:12;;;;;;;;;;;;;;;;;;351319;28;936;-62
2022/07/13 00:47:23;;;;;;;;;;;;;;;;;;351273;28;913;-62
2022/07/13 00:47:33;;;;;;;;;;;;;;;;;;351311;28;944;-62
2022/07/13 00:47:45;;;;;;;;;;;;;;;;;;351293;28;956;-62
2022/07/13 00:47:56;;;;;;;;;;;;;;;;;;351295;28;976;-62
2022/07/13 00:48:07;;;;;;;;;;;;;;;;;;351344;28;921;-62
2022/07/13 00:48:18;;;;;;;;;;;;;;;;;;351313;28;1004;-62
2022/07/13 00:48:29;;;;;;;;;;;;;;;;;;351530;28;1409;-62
2022/07/13 00:48:39;;;;;;;;;;;;;;;;;;352763;28;931;-62
2022/07/13 00:48:50;;;;;;;;;;;;;;;;;;352710;28;1031;-62
2022/07/13 00:49:00;;;;;;;;;;;;;;;;;;352693;28;1000;-62
2022/07/13 00:49:11;;;;;;;;;;;;;;;;;;352759;28;1055;-62
2022/07/13 00:49:22;;;;;;;;;;;;;;;;;;352777;28;932;-62
2022/07/13 00:49:32;;;;;;;;;;;;;;;;;;352730;28;916;-62
2022/07/13 00:49:43;;;;;;;;;;;;;;;;;;352726;28;849;-62
2022/07/13 00:49:53;;;;;;;;;;;;;;;;;;352755;28;793;-62
2022/07/13 00:50:08;;;;;;;;;;;;;;;;;;352656;28;988;-62
2022/07/13 00:50:18;;;;;;;;;;;;;;;;;;352784;28;790;-62
2022/07/13 00:50:29;;;;;;;;;;;;;;;;;;352739;28;928;-62
2022/07/13 00:50:40;;;;;;;;;;;;;;;;;;352711;28;1126;-62
2022/07/13 00:50:50;;;;;;;;;;;;;;;;;;352762;28;916;-62
2022/07/13 00:51:01;;;;;;;;;;;;;;;;;;352763;28;789;-62
2022/07/13 00:51:11;;;;;;;;;;;;;;;;;;352663;28;960;-62
2022/07/13 00:51:21;;;;;;;;;;;;;;;;;;352762;28;872;-62
2022/07/13 00:51:31;;;;;;;;;;;;;;;;;;352746;28;921;-62
2022/07/13 00:51:42;;;;;;;;;;;;;;;;;;352636;28;917;-62
2022/07/13 00:51:52;;;;;;;;;;;;;;;;;;352786;28;912;-62
2022/07/13 00:52:02;;;;;;;;;;;;;;;;;;352708;28;825;-62
2022/07/13 00:52:13;;;;;;;;;;;;;;;;;;352784;28;991;-62
2022/07/13 00:52:23;;;;;;;;;;;;;;;;;;352740;28;964;-62
2022/07/13 00:52:34;;;;;;;;;;;;;;;;;;352758;28;757;-62
2022/07/13 00:52:46;;;;;;;;;;;;;;;;;;352742;28;772;-62
2022/07/13 00:52:57;;;;;;;;;;;;;;;;;;352689;28;924;-62
2022/07/13 00:53:07;;;;;;;;;;;;;;;;;;352728;28;920;-61
2022/07/13 00:53:18;;;;;;;;;;;;;;;;;;352730;28;944;-62
2022/07/13 00:53:29;;;;;;;;;;;;;;;;;;352769;28;836;-62
2022/07/13 00:53:39;;;;;;;;;;;;;;;;;;352659;28;932;-62
2022/07/13 00:53:49;;;;;;;;;;;;;;;;;;352671;28;921;-62
2022/07/13 00:54:00;;;;;;;;;;;;;;;;;;352712;28;833;-62
2022/07/13 00:54:11;;;;;;;;;;;;;;;;;;352701;28;1066;-62
2022/07/13 00:54:28;;;;;;;;;;;;;;;;;;352710;28;897;-62
2022/07/13 00:54:41;;;;;;;;;;;;;;;;;;352729;28;944;-62
2022/07/13 00:54:52;;;;;;;;;;;;;;;;;;352795;28;825;-62
2022/07/13 00:55:05;;;;;;;;;;;;;;;;;;352721;28;971;-62
2022/07/13 00:55:15;;;;;;;;;;;;;;;;;;352651;28;1275;-62
2022/07/13 00:55:25;;;;;;;;;;;;;;;;;;351707;28;1648;-62
2022/07/13 00:55:36;;;;;;;;;;;;;;;;;;352609;28;983;-62
2022/07/13 00:55:46;;;;;;;;;;;;;;;;;;352674;28;1035;-62
2022/07/13 00:55:57;;;;;;;;;;;;;;;;;;352663;28;779;-62
2022/07/13 00:56:08;;;;;;;;;;;;;;;;;;352677;28;972;-62
2022/07/13 00:56:18;;;;;;;;;;;;;;;;;;352683;28;883;-62
2022/07/13 00:56:29;;;;;;;;;;;;;;;;;;352696;28;925;-62
2022/07/13 00:56:40;;;;;;;;;;;;;;;;;;352697;28;837;-62
2022/07/13 00:56:50;;;;;;;;;;;;;;;;;;352660;28;952;-62
2022/07/13 00:57:01;;;;;;;;;;;;;;;;;;352741;28;810;-62
2022/07/13 00:57:14;;;;;;;;;;;;;;;;;;352655;28;1023;-62
2022/07/13 00:57:26;;;;;;;;;;;;;;;;;;351833;28;1586;-62
2022/07/13 00:57:38;;;;;;;;;;;;;;;;;;352902;28;1260;-62
2022/07/13 00:57:48;;;;;;;;;;;;;;;;;;354123;28;952;-62
2022/07/13 00:57:59;;;;;;;;;;;;;;;;;;354060;28;786;-62
2022/07/13 00:58:09;;;;;;;;;;;;;;;;;;354093;28;920;-62
2022/07/13 00:58:19;;;;;;;;;;;;;;;;;;354080;28;1063;-62
2022/07/13 00:58:30;;;;;;;;;;;;;;;;;;354137;28;908;-62
2022/07/13 00:58:41;;;;;;;;;;;;;;;;;;354136;28;841;-62
2022/07/13 00:58:51;;;;;;;;;;;;;;;;;;354077;28;960;-62
2022/07/13 00:59:04;;;;;;;;;;;;;;;;;;352029;27;1358;-62
2022/07/13 00:59:14;;;;;;;;;;;;;;;;;;352712;28;683;-62
2022/07/13 00:59:25;;;;;;;;;;;;;;;;;;352758;28;1012;-62
2022/07/13 00:59:36;;;;;;;;;;;;;;;;;;352745;28;995;-62
2022/07/13 00:59:46;;;;;;;;;;;;;;;;;;352647;28;877;-62
2022/07/13 00:59:57;;;;;;;;;;;;;;;;;;352693;28;921;-62
2022/07/13 01:00:10;;;;;;;;;;;;;;;;;;351838;28;1351;-62
2022/07/13 01:00:20;;;;;;;;;;;;;;;;;;352667;28;1055;-62
2022/07/13 01:00:30;;;;;;;;;;;;;;;;;;352678;28;913;-62
2022/07/13 01:00:40;;;;;;;;;;;;;;;;;;352702;28;921;-62
2022/07/13 01:00:51;;;;;;;;;;;;;;;;;;352706;28;829;-62
2022/07/13 01:01:01;;;;;;;;;;;;;;;;;;352684;28;983;-62
2022/07/13 01:01:11;;;;;;;;;;;;;;;;;;352695;28;972;-62
2022/07/13 01:01:21;;;;;;;;;;;;;;;;;;352699;28;920;-62
2022/07/13 01:01:32;;;;;;;;;;;;;;;;;;352699;28;989;-62
2022/07/13 01:01:42;;;;;;;;;;;;;;;;;;352665;28;1168;-62
2022/07/13 01:01:53;;;;;;;;;;;;;;;;;;352734;28;983;-62
2022/07/13 01:02:03;;;;;;;;;;;;;;;;;;352722;28;928;-62
2022/07/13 01:02:13;;;;;;;;;;;;;;;;;;352633;28;917;-62
2022/07/13 01:02:24;;;;;;;;;;;;;;;;;;352706;28;1161;-62
2022/07/13 01:02:41;;;;;;;;;;;;;;;;;;352675;28;972;-62
2022/07/13 01:02:51;;;;;;;;;;;;;;;;;;352680;28;995;-62
2022/07/13 01:03:01;;;;;;;;;;;;;;;;;;352659;28;968;-62
2022/07/13 01:03:12;;;;;;;;;;;;;;;;;;352554;28;1213;-62
2022/07/13 01:03:22;;;;;;;;;;;;;;;;;;352701;28;952;-62
2022/07/13 01:03:32;;;;;;;;;;;;;;;;;;352721;28;945;-62
2022/07/13 01:03:42;;;;;;;;;;;;;;;;;;352609;28;1906;-62
2022/07/13 01:03:53;;;;;;;;;;;;;;;;;;352626;28;901;-62
2022/07/13 01:04:03;;;;;;;;;;;;;;;;;;352711;28;912;-62
2022/07/13 01:04:13;;;;;;;;;;;;;;;;;;352661;28;916;-62
2022/07/13 01:04:23;;;;;;;;;;;;;;;;;;352685;28;917;-62
2022/07/13 01:04:34;;;;;;;;;;;;;;;;;;352690;28;759;-62
2022/07/13 01:04:44;;;;;;;;;;;;;;;;;;352670;28;917;-62
2022/07/13 01:04:54;;;;;;;;;;;;;;;;;;352698;28;754;-62
2022/07/13 01:05:05;;;;;;;;;;;;;;;;;;352677;28;928;-62
2022/07/13 01:05:16;;;;;;;;;;;;;;;;;;352648;28;861;-62
2022/07/13 01:05:26;;;;;;;;;;;;;;;;;;352673;28;786;-62
2022/07/13 01:05:36;;;;;;;;;;;;;;;;;;352613;28;1079;-62
2022/07/13 01:05:47;;;;;;;;;;;;;;;;;;352727;28;766;-62
2022/07/13 01:05:58;;;;;;;;;;;;;;;;;;352665;28;991;-62
2022/07/13 01:06:10;;;;;;;;;;;;;;;;;;352682;28;953;-62
2022/07/13 01:06:20;;;;;;;;;;;;;;;;;;352641;28;924;-62
2022/07/13 01:06:30;;;;;;;;;;;;;;;;;;352532;28;1667;-62
2022/07/13 01:06:40;;;;;;;;;;;;;;;;;;352735;28;850;-62
2022/07/13 01:06:52;;;;;;;;;;;;;;;;;;352715;28;920;-62
2022/07/13 01:07:03;;;;;;;;;;;;;;;;;;352706;28;901;-62
2022/07/13 01:07:13;;;;;;;;;;;;;;;;;;351625;28;1412;-62
2022/07/13 01:07:24;;;;;;;;;;;;;;;;;;352362;28;996;-62
2022/07/13 01:07:35;;;;;;;;;;;;;;;;;;352722;28;917;-62
2022/07/13 01:07:45;;;;;;;;;;;;;;;;;;352725;28;924;-62
2022/07/13 01:07:55;;;;;;;;;;;;;;;;;;352664;28;901;-62
2022/07/13 01:08:06;;;;;;;;;;;;;;;;;;352715;28;933;-62
2022/07/13 01:08:18;;;;;;;;;;;;;;;;;;352735;28;944;-62
2022/07/13 01:08:29;;;;;;;;;;;;;;;;;;352613;28;979;-62
2022/07/13 01:08:39;;;;;;;;;;;;;;;;;;352692;28;1004;-62
2022/07/13 01:08:50;;;;;;;;;;;;;;;;;;352731;28;1012;-62
2022/07/13 01:09:00;;;;;;;;;;;;;;;;;;352693;28;992;-62
2022/07/13 01:09:10;;;;;;;;;;;;;;;;;;352681;28;1012;-62
2022/07/13 01:09:23;;;;;;;;;;;;;;;;;;352684;28;964;-62
2022/07/13 01:09:34;;;;;;;;;;;;;;;;;;352696;28;925;-62
2022/07/13 01:09:44;;;;;;;;;;;;;;;;;;352515;28;1499;-62
2022/07/13 01:09:55;;;;;;;;;;;;;;;;;;353515;28;1530;-62
2022/07/13 01:10:07;;;;;;;;;;;;;;;;;;354085;28;798;-62
2022/07/13 01:10:17;;;;;;;;;;;;;;;;;;354107;28;999;-62
2022/07/13 01:10:27;;;;;;;;;;;;;;;;;;354118;28;861;-62
2022/07/13 01:10:38;;;;;;;;;;;;;;;;;;354059;28;869;-62
2022/07/13 01:10:49;;;;;;;;;;;;;;;;;;354108;28;798;-62
2022/07/13 01:10:59;;;;;;;;;;;;;;;;;;354153;28;911;-62
2022/07/13 01:11:09;;;;;;;;;;;;;;;;;;354094;28;932;-62
2022/07/13 01:11:20;;;;;;;;;;;;;;;;;;354146;28;948;-62
2022/07/13 01:11:32;;;;;;;;;;;;;;;;;;354123;28;999;-62
2022/07/13 01:11:42;;;;;;;;;;;;;;;;;;354119;28;860;-62
2022/07/13 01:11:52;;;;;;;;;;;;;;;;;;354121;28;951;-62
2022/07/13 01:12:03;;;;;;;;;;;;;;;;;;354080;28;1052;-62
2022/07/13 01:12:14;;;;;;;;;;;;;;;;;;354119;28;949;-62
2022/07/13 01:12:27;;;;;;;;;;;;;;;;;;354094;28;898;-62
2022/07/13 01:12:37;;;;;;;;;;;;;;;;;;354055;28;952;-62
2022/07/13 01:12:48;;;;;;;;;;;;;;;;;;354154;28;782;-62
2022/07/13 01:12:58;;;;;;;;;;;;;;;;;;354079;28;1146;-62
2022/07/13 01:13:10;;;;;;;;;;;;;;;;;;354050;28;948;-63
2022/07/13 01:13:22;;;;;;;;;;;;;;;;;;354120;28;845;-62
2022/07/13 01:13:33;;;;;;;;;;;;;;;;;;354088;28;991;-62
2022/07/13 01:13:44;;;;;;;;;;;;;;;;;;354143;28;924;-62
2022/07/13 01:13:55;;;;;;;;;;;;;;;;;;354088;28;988;-62
2022/07/13 01:14:05;;;;;;;;;;;;;;;;;;354112;28;924;-62
2022/07/13 01:14:16;;;;;;;;;;;;;;;;;;354111;28;944;-62
2022/07/13 01:14:27;;;;;;;;;;;;;;;;;;354079;28;949;-62
2022/07/13 01:14:38;;;;;;;;;;;;;;;;;;354055;28;991;-62
2022/07/13 01:14:48;;;;;;;;;;;;;;;;;;354103;28;908;-62
2022/07/13 01:14:59;;;;;;;;;;;;;;;;;;354116;28;980;-62
2022/07/13 01:15:10;;;;;;;;;;;;;;;;;;354087;28;1004;-62
2022/07/13 01:15:21;;;;;;;;;;;;;;;;;;354089;28;916;-62